Aviation Discussion

000 FXUS63 KDTX 030359 AFDDTX AREA FORECAST DISCUSSION NATIONAL WEATHER SERVICE DETROIT/PONTIAC MI 1159 PM EDT TUE SEP 2 2014 .AVIATION... //DISCUSSION... AREA OF HIGH PRESSURE SETTLES OVER THE REGION THROUGH WEDNESDAY. THERE REMAINS A VERY LOW PROBABILITY FOR FOG TO DEVELOP UNDER LIGHT/CALM WINDS EARLY THIS MORNING...BUT THE DEGREE OF LOW LEVEL DRYING APPEARS SUFFICIENT ENOUGH TO REFRAIN FROM ANY INCLUSION AT THIS TIME. THIS ENVIRONMENT WILL ENSURE A CLEAR SKY HOLDS BELOW 5000 FT THROUGH THE TAF PERIOD. A LIMITED FIELD OF DIURNAL CU IS EXPECTED ABOVE THIS LEVEL WEDNESDAY AFTERNOON. //DTW THRESHOLD THREATS... * NONE

KDTW 030312Z 0303/0406 VRB03KT P6SM SKC
FM031500 22007KT P6SM SCT060
FM040000 20007KT P6SM SCT250=

KDET 022320Z 0300/0324 28005KT P6SM SCT070
FM031500 22007KT P6SM SCT060=

Cleveland Center Weather Service Unit (CWSU)
Mission:
Our main responsibility is to provide up to the minute weather information to FAA Supervisors and the ZOB Traffic Management Unit (TMU). Some of the products issued by the CWSU are the Center Weather Advisories (CWA) and the Meteorological Impact Statement (MIS). The CWA is an aviation weather warning for thunderstorms, severe icing or turbulence, and low IFR ceilings and visibility. The MIS is a 2-12 hour forecast for weather conditions, which are expected to impact ARTCC operations.
 
Operations:
The Cleveland Center Weather Service Unit (ZOB CWSU) is located at the Federal Aviation Administration (FAA) Air Route Traffic Control Center (ARTCC) in Oberlin, OH. Four National Weather Service meteorologists staff the office. Our hours of operation are from 6:00 A.M. to 9:30 P.M. daily.

Web Site Owner:
NOAA National Weather Service
Cleveland ARTCC Attn:CWSU
326 East Lorain Street
Oberlin, OH 44074
Web Administrator:Webmaster
Page last modified: 23 Feb 2013
Disclaimer
Credits
Glossary
Privacy Policy
About Our Organization
Career Opportunities